createdAt,value
2019-06-08T00:02:43.537Z,100.00
2019-06-08T00:05:25.984Z,100.00
2019-06-08T00:08:16.837Z,100.00
2019-06-08T00:11:01.245Z,100.00
2019-06-08T00:19:40.962Z,100.00
2019-06-08T00:22:30.655Z,100.00
2019-06-08T00:25:13.807Z,100.00
2019-06-08T00:28:03.573Z,100.00
2019-06-08T00:30:46.358Z,100.00
2019-06-08T00:33:36.051Z,100.00
2019-06-08T00:36:18.804Z,100.00
2019-06-08T00:42:11.879Z,100.00
2019-06-08T00:45:01.735Z,100.00
2019-06-08T00:47:48.025Z,100.00
2019-06-08T00:50:35.440Z,100.00
2019-06-08T00:53:17.372Z,100.00
2019-06-08T00:56:07.117Z,100.00
2019-06-08T00:58:49.681Z,100.00
2019-06-08T01:01:39.374Z,100.00
2019-06-08T01:04:29.219Z,100.00
2019-06-08T01:07:11.955Z,100.00
2019-06-08T01:13:05.530Z,100.00
2019-06-08T01:15:47.934Z,100.00
2019-06-08T01:18:38.029Z,100.00
2019-06-08T01:21:27.849Z,100.00
2019-06-08T01:24:17.564Z,100.00
2019-06-08T01:27:07.300Z,100.00
2019-06-08T01:29:49.196Z,100.00
2019-06-08T01:32:38.949Z,100.00
2019-06-08T01:35:21.108Z,100.00
2019-06-08T01:38:04.018Z,100.00
2019-06-08T01:40:53.857Z,100.00
2019-06-08T01:43:43.620Z,100.00
2019-06-08T01:46:25.915Z,100.00
2019-06-08T01:49:15.673Z,100.00
2019-06-08T01:52:05.478Z,100.00
2019-06-08T01:54:55.273Z,100.00
2019-06-08T01:57:45.134Z,100.00
2019-06-08T02:00:55.374Z,100.00
2019-06-08T02:03:37.774Z,100.00
2019-06-08T02:06:28.446Z,100.00
2019-06-08T02:09:11.929Z,100.00
2019-06-08T02:12:01.671Z,100.00
2019-06-08T02:14:44.415Z,100.00
2019-06-08T02:17:35.483Z,100.00
2019-06-08T02:20:18.514Z,100.00
2019-06-08T02:26:02.900Z,100.00
2019-06-08T02:28:52.754Z,100.00
2019-06-08T02:34:25.741Z,100.00
2019-06-08T02:37:15.477Z,100.00
2019-06-08T02:39:58.264Z,100.00
2019-06-08T02:42:48.026Z,100.00
2019-06-08T02:45:31.862Z,100.00
2019-06-08T02:48:21.573Z,100.00
2019-06-08T02:51:11.444Z,100.00
2019-06-08T02:53:53.748Z,100.00
2019-06-08T02:56:36.772Z,100.00
2019-06-08T03:02:43.512Z,100.00
2019-06-08T03:05:53.884Z,100.00
2019-06-08T03:08:44.149Z,100.00
2019-06-08T03:14:48.230Z,100.00
2019-06-08T03:17:39.903Z,100.00
2019-06-08T03:20:26.155Z,100.00
2019-06-08T03:23:08.295Z,100.00
2019-06-08T03:25:58.103Z,100.00
2019-06-08T03:28:47.924Z,100.00
2019-06-08T03:31:43.457Z,100.00
2019-06-08T03:34:23.645Z,100.00
2019-06-08T03:37:05.848Z,100.00
2019-06-08T03:39:55.578Z,100.00
2019-06-08T03:42:45.272Z,100.00
2019-06-08T03:45:28.091Z,100.00
2019-06-08T03:48:17.846Z,100.00
2019-06-08T03:50:59.986Z,100.00
2019-06-08T03:53:49.743Z,100.00
2019-06-08T03:56:32.427Z,100.00
2019-06-08T03:59:22.121Z,100.00
2019-06-08T04:02:05.794Z,100.00
2019-06-08T04:04:55.493Z,100.00
2019-06-08T04:07:39.673Z,100.00
2019-06-08T04:10:29.610Z,100.00
2019-06-08T04:13:12.353Z,100.00
2019-06-08T04:16:02.099Z,100.00
2019-06-08T04:18:46.953Z,100.00
2019-06-08T04:21:37.877Z,100.00
2019-06-08T04:24:21.453Z,100.00
2019-06-08T04:27:11.193Z,100.00
2019-06-08T04:29:53.416Z,100.00
2019-06-08T04:32:44.924Z,100.00
2019-06-08T04:35:29.603Z,100.00
2019-06-08T04:38:00.265Z,100.00
2019-06-08T04:40:50.083Z,100.00
2019-06-08T04:46:33.773Z,100.00
2019-06-08T04:49:23.513Z,100.00
2019-06-08T04:52:07.569Z,100.00
2019-06-08T04:54:57.301Z,100.00
2019-06-08T04:57:41.367Z,100.00
2019-06-08T05:00:31.538Z,100.00
2019-06-08T05:03:14.568Z,100.00
2019-06-08T05:06:04.466Z,100.00
2019-06-08T05:08:47.425Z,100.00
2019-06-08T05:11:56.345Z,100.00
2019-06-08T05:14:39.107Z,100.00
2019-06-08T05:17:28.868Z,100.00
2019-06-08T05:20:11.945Z,100.00
2019-06-08T05:25:56.036Z,100.00
2019-06-08T05:28:45.810Z,100.00
2019-06-08T05:31:35.607Z,100.00
2019-06-08T05:34:25.378Z,100.00
2019-06-08T05:37:07.939Z,100.00
2019-06-08T05:39:57.646Z,100.00
2019-06-08T05:42:42.018Z,100.00
2019-06-08T05:45:31.686Z,100.00
2019-06-08T05:48:21.466Z,100.00
2019-06-08T05:51:24.510Z,100.00
2019-06-08T05:54:07.469Z,100.00
2019-06-08T05:56:57.182Z,100.00
2019-06-08T05:59:40.056Z,100.00
2019-06-08T06:02:31.826Z,100.00
2019-06-08T06:05:14.430Z,100.00
2019-06-08T06:08:16.067Z,100.00
2019-06-08T06:10:48.948Z,100.00
2019-06-08T06:13:38.725Z,100.00
2019-06-08T06:16:20.606Z,100.00
2019-06-08T06:19:10.330Z,100.00
2019-06-08T06:21:52.656Z,100.00
2019-06-08T06:24:43.721Z,100.00
2019-06-08T06:27:27.617Z,100.00
2019-06-08T06:33:14.531Z,100.00
2019-06-08T06:36:23.371Z,100.00
2019-06-08T06:39:06.521Z,100.00
2019-06-08T06:42:15.483Z,100.00
2019-06-08T06:45:06.067Z,100.00
2019-06-08T06:47:55.835Z,100.00
2019-06-08T06:50:46.288Z,100.00
2019-06-08T06:53:36.996Z,100.00
2019-06-08T06:56:18.937Z,100.00
2019-06-08T06:59:08.674Z,100.00
2019-06-08T07:01:54.120Z,100.00
2019-06-08T07:04:43.727Z,100.00
2019-06-08T07:07:26.819Z,100.00
2019-06-08T07:10:16.647Z,100.00
2019-06-08T07:12:58.663Z,100.00
2019-06-08T07:15:51.534Z,100.00
2019-06-08T07:18:32.741Z,100.00
2019-06-08T07:21:22.548Z,100.00
2019-06-08T07:24:04.829Z,100.00
2019-06-08T07:26:54.656Z,100.00
2019-06-08T07:29:37.553Z,100.00
2019-06-08T07:32:27.379Z,100.00
2019-06-08T07:35:09.795Z,100.00
2019-06-08T07:37:59.906Z,100.00
2019-06-08T07:40:50.028Z,100.00
2019-06-08T07:43:39.829Z,100.00
2019-06-08T07:46:49.321Z,100.00
2019-06-08T07:49:33.780Z,98.80
2019-06-08T07:52:23.545Z,97.29
2019-06-08T07:55:32.633Z,100.00
2019-06-08T07:58:14.704Z,92.54
2019-06-08T08:01:08.131Z,87.91
2019-06-08T08:03:52.173Z,91.89
2019-06-08T08:09:45.630Z,86.43
2019-06-08T08:12:30.146Z,80.88
2019-06-08T08:15:20.555Z,80.83
2019-06-08T08:18:10.833Z,73.65
2019-06-08T08:20:55.840Z,75.51
2019-06-08T08:23:47.890Z,66.39
2019-06-08T08:26:34.356Z,69.78
2019-06-08T08:29:23.012Z,63.54
2019-06-08T08:32:12.980Z,63.62
2019-06-08T08:35:03.326Z,69.05
2019-06-08T08:37:56.321Z,78.67
2019-06-08T08:40:38.804Z,72.50
2019-06-08T08:43:29.542Z,76.06
2019-06-08T08:46:39.016Z,72.08
2019-06-08T08:49:47.991Z,68.44
2019-06-08T08:52:36.889Z,66.20
2019-06-08T08:55:22.943Z,62.26
2019-06-08T08:58:13.386Z,59.96
2019-06-08T09:01:22.861Z,65.54
2019-06-08T09:04:31.716Z,53.43
2019-06-08T09:07:15.287Z,58.78
2019-06-08T09:10:00.547Z,76.42
2019-06-08T09:12:49.443Z,65.25
2019-06-08T09:18:33.001Z,62.28
2019-06-08T09:21:23.325Z,58.11
2019-06-08T09:24:13.143Z,51.06
2019-06-08T09:27:04.317Z,48.89
2019-06-08T09:29:48.236Z,47.94
2019-06-08T09:32:38.626Z,47.03
2019-06-08T09:35:28.914Z,46.79
2019-06-08T09:38:03.250Z,44.71
2019-06-08T09:40:33.317Z,45.59
2019-06-08T09:43:10.375Z,47.32
2019-06-08T09:45:58.745Z,54.87
2019-06-08T09:48:40.943Z,49.04
2019-06-08T09:51:31.253Z,48.46
2019-06-08T09:54:14.185Z,46.36
2019-06-08T09:57:06.657Z,42.31
2019-06-08T09:59:49.689Z,43.95
2019-06-08T10:02:39.979Z,44.78
2019-06-08T10:05:24.291Z,45.08
2019-06-08T10:08:14.856Z,44.77
2019-06-08T10:11:01.410Z,42.69
2019-06-08T10:13:50.200Z,45.46
2019-06-08T10:16:33.416Z,40.10
2019-06-08T10:19:23.710Z,39.59
2019-06-08T10:22:08.633Z,39.65
2019-06-08T10:25:02.825Z,39.70
2019-06-08T10:27:44.239Z,39.76
2019-06-08T10:30:34.552Z,41.99
2019-06-08T10:33:18.460Z,37.72
2019-06-08T10:36:12.198Z,40.58
2019-06-08T10:38:56.704Z,42.95
2019-06-08T10:41:51.286Z,40.52
2019-06-08T10:44:32.694Z,39.68
2019-06-08T10:47:23.037Z,40.72
2019-06-08T10:50:14.581Z,40.44
2019-06-08T10:53:03.648Z,38.49
2019-06-08T10:55:48.056Z,38.83
2019-06-08T10:58:37.259Z,38.18
2019-06-08T11:01:20.340Z,41.95
2019-06-08T11:04:10.582Z,34.50
2019-06-08T11:06:53.840Z,35.30
2019-06-08T11:09:44.120Z,36.18
2019-06-08T11:12:31.119Z,34.37
2019-06-08T11:15:21.418Z,33.75
2019-06-08T11:18:13.460Z,34.79
2019-06-08T11:20:58.451Z,32.23
2019-06-08T11:24:04.715Z,32.98
2019-06-08T11:26:33.249Z,32.89
2019-06-08T11:29:23.734Z,33.99
2019-06-08T11:32:10.934Z,30.75
2019-06-08T11:34:59.887Z,31.73
2019-06-08T11:37:43.709Z,32.75
2019-06-08T11:40:33.996Z,32.54
2019-06-08T11:43:18.302Z,30.03
2019-06-08T11:46:08.733Z,29.45
2019-06-08T11:48:51.587Z,31.39
2019-06-08T11:51:41.863Z,32.61
2019-06-08T11:54:34.341Z,30.77
2019-06-08T11:57:17.643Z,30.98
2019-06-08T12:00:09.262Z,29.57
2019-06-08T12:02:53.576Z,30.99
2019-06-08T12:05:37.123Z,30.58
2019-06-08T12:08:28.450Z,31.28
2019-06-08T12:11:18.070Z,30.64
2019-06-08T12:14:04.806Z,30.55
2019-06-08T12:16:49.462Z,31.71
2019-06-08T12:19:39.777Z,32.06
2019-06-08T12:22:23.142Z,30.34
2019-06-08T12:25:14.191Z,29.89
2019-06-08T12:27:58.629Z,28.77
2019-06-08T12:30:49.014Z,29.72
2019-06-08T12:33:33.320Z,29.67
2019-06-08T12:36:23.692Z,30.98
2019-06-08T12:39:14.266Z,29.82
2019-06-08T12:42:00.659Z,29.72
2019-06-08T12:44:50.938Z,31.01
2019-06-08T12:47:41.235Z,32.84
2019-06-08T12:50:28.176Z,29.86
2019-06-08T12:53:15.976Z,31.54
2019-06-08T12:56:24.200Z,31.22
2019-06-08T12:59:18.542Z,30.61
2019-06-08T13:02:00.222Z,32.26
2019-06-08T13:04:50.590Z,32.74
2019-06-08T13:07:40.930Z,31.89
2019-06-08T13:13:37.615Z,31.49
2019-06-08T13:16:24.210Z,30.87
2019-06-08T13:19:05.017Z,28.54
2019-06-08T13:21:55.408Z,30.74
2019-06-08T13:24:47.776Z,31.16
2019-06-08T13:27:38.175Z,33.13
2019-06-08T13:30:25.864Z,32.41
2019-06-08T13:33:14.032Z,30.13
2019-06-08T13:35:58.153Z,30.14
2019-06-08T13:38:48.457Z,28.24
2019-06-08T13:41:31.020Z,27.55
2019-06-08T13:44:21.940Z,28.78
2019-06-08T13:47:07.633Z,29.66
2019-06-08T13:50:19.238Z,27.93
2019-06-08T13:53:01.217Z,29.05
2019-06-08T13:55:56.344Z,29.26
2019-06-08T13:58:38.101Z,29.95
2019-06-08T14:01:30.830Z,30.52
2019-06-08T14:04:12.311Z,28.19
2019-06-08T14:07:02.611Z,30.09
2019-06-08T14:09:47.814Z,28.20
2019-06-08T14:12:38.451Z,30.91
2019-06-08T14:15:23.359Z,27.11
2019-06-08T14:18:13.660Z,27.26
2019-06-08T14:20:58.714Z,27.21
2019-06-08T14:23:48.829Z,29.60
2019-06-08T14:26:32.196Z,28.93
2019-06-08T14:29:23.272Z,28.92
2019-06-08T14:32:07.860Z,27.66
2019-06-08T14:34:58.459Z,29.55
2019-06-08T14:37:48.807Z,30.81
2019-06-08T14:40:39.209Z,29.44
2019-06-08T14:43:31.280Z,28.43
2019-06-08T14:46:14.240Z,29.45
2019-06-08T14:49:04.608Z,28.96
2019-06-08T14:51:54.962Z,28.47
2019-06-08T14:54:45.446Z,26.37
2019-06-08T14:57:37.444Z,28.22
2019-06-08T15:00:22.992Z,28.88
2019-06-08T15:03:13.400Z,28.09
2019-06-08T15:06:03.722Z,27.84
2019-06-08T15:08:54.192Z,28.07
2019-06-08T15:11:44.714Z,27.54
2019-06-08T15:14:38.343Z,27.14
2019-06-08T15:17:28.945Z,26.84
2019-06-08T15:20:11.815Z,27.15
2019-06-08T15:23:02.175Z,28.40
2019-06-08T15:25:52.517Z,29.05
2019-06-08T15:28:42.881Z,28.32
2019-06-08T15:31:33.169Z,28.08
2019-06-08T15:34:23.472Z,27.32
2019-06-08T15:37:09.183Z,26.21
2019-06-08T15:39:58.727Z,26.37
2019-06-08T15:42:41.840Z,26.10
2019-06-08T15:45:34.116Z,28.07
2019-06-08T15:48:20.219Z,27.12
2019-06-08T15:51:09.344Z,27.00
2019-06-08T15:53:52.624Z,27.38
2019-06-08T15:56:49.510Z,28.22
2019-06-08T15:59:34.163Z,30.14
2019-06-08T16:02:39.449Z,30.88
2019-06-08T16:05:23.444Z,31.84
2019-06-08T16:08:13.880Z,31.88
2019-06-08T16:11:04.236Z,31.94
2019-06-08T16:13:54.618Z,31.58
2019-06-08T16:19:53.113Z,31.83
2019-06-08T16:22:35.984Z,32.63
2019-06-08T16:25:27.555Z,32.97
2019-06-08T16:28:10.885Z,32.86
2019-06-08T16:31:01.348Z,32.82
2019-06-08T16:33:51.685Z,32.34
2019-06-08T16:36:54.819Z,33.59
2019-06-08T16:39:37.363Z,32.81
2019-06-08T16:42:27.986Z,32.64
2019-06-08T16:47:58.522Z,32.27
2019-06-08T16:50:48.812Z,33.04
2019-06-08T16:53:40.032Z,32.42
2019-06-08T16:56:23.703Z,32.59
2019-06-08T16:59:13.991Z,31.16
2019-06-08T17:01:57.377Z,29.68
2019-06-08T17:04:47.694Z,31.56
2019-06-08T17:07:32.162Z,32.17
2019-06-08T17:10:22.519Z,33.53
2019-06-08T17:13:05.359Z,33.51
2019-06-08T17:15:55.681Z,32.37
2019-06-08T17:18:38.832Z,32.13
2019-06-08T17:21:48.461Z,31.84
2019-06-08T17:24:32.525Z,32.26
2019-06-08T17:27:26.773Z,32.62
2019-06-08T17:30:08.826Z,33.26
2019-06-08T17:32:59.318Z,33.74
2019-06-08T17:35:42.563Z,34.22
2019-06-08T17:38:34.055Z,35.17
2019-06-08T17:41:17.942Z,35.09
2019-06-08T17:44:08.165Z,35.75
2019-06-08T17:46:52.583Z,36.27
2019-06-08T17:49:43.379Z,38.69
2019-06-08T17:52:28.123Z,39.09
2019-06-08T17:55:18.641Z,39.04
2019-06-08T18:03:58.055Z,46.45
2019-06-08T18:06:43.409Z,45.47
2019-06-08T18:09:34.292Z,47.40
2019-06-08T18:12:26.996Z,46.52
2019-06-08T18:15:09.772Z,48.29
2019-06-08T18:17:59.690Z,49.65
2019-06-08T18:20:52.053Z,48.81
2019-06-08T18:23:34.447Z,51.27
2019-06-08T18:26:24.758Z,49.53
2019-06-08T18:29:08.065Z,48.11
2019-06-08T18:31:58.790Z,47.14
2019-06-08T18:34:49.109Z,46.50
2019-06-08T18:40:37.915Z,47.42
2019-06-08T18:43:29.060Z,46.29
2019-06-08T18:46:11.223Z,46.55
2019-06-08T18:49:01.776Z,46.31
2019-06-08T18:51:46.245Z,47.63
2019-06-08T18:54:38.470Z,47.70
2019-06-08T18:57:21.216Z,47.60
2019-06-08T19:00:11.843Z,47.30
2019-06-08T19:02:57.790Z,47.91
2019-06-08T19:05:49.868Z,47.91
2019-06-08T19:08:31.036Z,46.58
2019-06-08T19:11:20.782Z,45.80
2019-06-08T19:14:03.152Z,46.33
2019-06-08T19:16:54.834Z,47.29
2019-06-08T19:19:44.350Z,48.42
2019-06-08T19:22:30.447Z,47.84
2019-06-08T19:25:12.960Z,47.80
2019-06-08T19:28:02.694Z,47.00
2019-06-08T19:30:47.640Z,46.19
2019-06-08T19:33:37.455Z,47.36
2019-06-08T19:36:20.456Z,47.13
2019-06-08T19:39:10.181Z,47.10
2019-06-08T19:41:52.469Z,47.80
2019-06-08T19:47:44.977Z,48.98
2019-06-08T19:50:34.699Z,48.43
2019-06-08T19:53:18.295Z,48.71
2019-06-08T19:59:05.128Z,50.89
2019-06-08T20:01:56.507Z,52.68
2019-06-08T20:04:40.653Z,50.30
2019-06-08T20:07:22.983Z,49.78
2019-06-08T20:10:12.961Z,50.57
2019-06-08T20:13:03.328Z,49.41
2019-06-08T20:16:12.717Z,49.46
2019-06-08T20:19:03.085Z,48.00
2019-06-08T20:22:00.316Z,50.22
2019-06-08T20:24:55.300Z,49.34
2019-06-08T20:27:37.114Z,53.01
2019-06-08T20:33:30.058Z,59.65
2019-06-08T20:36:13.151Z,63.13
2019-06-08T20:39:03.490Z,57.33
2019-06-08T20:41:48.491Z,53.83
2019-06-08T20:44:38.546Z,49.46
2019-06-08T20:47:23.321Z,53.78
2019-06-08T20:53:08.632Z,69.89
2019-06-08T20:55:59.021Z,70.81
2019-06-08T20:58:43.247Z,73.56
2019-06-08T21:01:33.171Z,70.99
2019-06-08T21:04:23.023Z,68.07
2019-06-08T21:07:17.383Z,57.27
2019-06-08T21:09:59.497Z,57.94
2019-06-08T21:12:51.382Z,58.60
2019-06-08T21:15:34.203Z,63.16
2019-06-08T21:18:04.867Z,69.42
2019-06-08T21:20:57.451Z,69.03
2019-06-08T21:23:39.685Z,71.25
2019-06-08T21:26:29.551Z,70.65
2019-06-08T21:29:19.307Z,71.94
2019-06-08T21:32:09.163Z,76.64
2019-06-08T21:35:00.387Z,80.53
2019-06-08T21:37:44.821Z,83.84
2019-06-08T21:40:37.476Z,86.58
2019-06-08T21:43:19.691Z,87.10
2019-06-08T21:46:10.041Z,89.12
2019-06-08T21:49:00.584Z,89.95
2019-06-08T21:51:52.930Z,93.56
2019-06-08T21:54:34.775Z,97.66
2019-06-08T21:57:24.552Z,99.36
2019-06-08T22:00:38.874Z,100.00
2019-06-08T22:03:10.962Z,100.00
2019-06-08T22:06:00.668Z,100.00
2019-06-08T22:11:37.577Z,100.00
2019-06-08T22:14:39.546Z,100.00
2019-06-08T22:17:10.342Z,100.00
2019-06-08T22:20:19.166Z,100.00
2019-06-08T22:23:01.413Z,100.00
2019-06-08T22:25:52.446Z,100.00
2019-06-08T22:28:34.971Z,100.00
2019-06-08T22:34:17.460Z,100.00
2019-06-08T22:37:08.516Z,100.00
2019-06-08T22:42:47.924Z,100.00
2019-06-08T22:45:37.541Z,100.00
2019-06-08T22:48:20.629Z,100.00
2019-06-08T22:54:13.018Z,100.00
2019-06-08T22:56:55.365Z,100.00
2019-06-08T22:59:45.073Z,100.00
2019-06-08T23:02:27.919Z,100.00
2019-06-08T23:05:18.539Z,100.00
2019-06-08T23:08:04.589Z,100.00
2019-06-08T23:10:54.223Z,100.00
2019-06-08T23:13:37.855Z,100.00
2019-06-08T23:16:27.588Z,100.00
2019-06-08T23:19:10.405Z,100.00
2019-06-08T23:22:01.314Z,100.00
2019-06-08T23:24:45.034Z,100.00
2019-06-08T23:27:34.739Z,100.00
2019-06-08T23:30:18.498Z,100.00
2019-06-08T23:33:11.500Z,100.00
2019-06-08T23:36:30.797Z,100.00
2019-06-08T23:38:44.005Z,100.00
2019-06-08T23:41:27.275Z,100.00
2019-06-08T23:44:17.637Z,100.00
2019-06-08T23:47:02.939Z,100.00
2019-06-08T23:49:53.803Z,100.00
2019-06-08T23:52:38.187Z,100.00
2019-06-08T23:55:28.117Z,100.00
2019-06-08T23:57:59.939Z,100.00
